createdAt,value
2018-09-18T00:00:27.354Z,24.6
2018-09-18T00:01:34.604Z,24.6
2018-09-18T00:02:32.336Z,24.6
2018-09-18T00:03:31.068Z,24.6
2018-09-18T00:04:30.925Z,24.6
2018-09-18T00:05:29.019Z,24.6
2018-09-18T00:06:23.793Z,24.6
2018-09-18T00:07:24.581Z,24.6
2018-09-18T00:08:24.035Z,24.6
2018-09-18T00:09:29.398Z,24.6
2018-09-18T00:10:32.106Z,24.6
2018-09-18T00:11:29.859Z,24.5
2018-09-18T00:12:27.917Z,24.5
2018-09-18T00:13:26.101Z,24.5
2018-09-18T00:14:27.488Z,24.5
2018-09-18T00:15:26.442Z,24.5
2018-09-18T00:16:25.753Z,24.5
2018-09-18T00:17:45.907Z,24.5
2018-09-18T00:18:45.563Z,24.5
2018-09-18T00:19:44.292Z,24.5
2018-09-18T00:20:42.185Z,24.5
2018-09-18T00:21:41.257Z,24.5
2018-09-18T00:22:39.836Z,24.5
2018-09-18T00:23:40.676Z,24.5
2018-09-18T00:24:39.349Z,24.5
2018-09-18T00:25:40.009Z,24.5
2018-09-18T00:26:55.423Z,24.5
2018-09-18T00:28:09.946Z,24.5
2018-09-18T00:29:10.706Z,24.4
2018-09-18T00:29:40.564Z,24.5
2018-09-18T00:30:43.521Z,24.4
2018-09-18T00:31:41.216Z,24.5
2018-09-18T00:32:39.348Z,24.5
2018-09-18T00:33:40.915Z,24.4
2018-09-18T00:34:38.872Z,24.4
2018-09-18T00:35:44.119Z,24.4
2018-09-18T00:36:40.895Z,24.4
2018-09-18T00:37:42.176Z,24.4
2018-09-18T00:38:55.846Z,24.4
2018-09-18T00:39:51.088Z,24.4
2018-09-18T00:40:52.185Z,24.4
2018-09-18T00:41:50.762Z,24.3
2018-09-18T00:42:52.227Z,24.4
2018-09-18T00:43:50.427Z,24.4
2018-09-18T00:44:48.740Z,24.3
2018-09-18T00:45:49.508Z,24.4
2018-09-18T00:46:51.659Z,24.3
2018-09-18T00:47:49.742Z,24.3
2018-09-18T00:48:59.441Z,24.3
2018-09-18T00:49:56.059Z,24.3
2018-09-18T00:51:00.995Z,24.3
2018-09-18T00:51:59.611Z,24.3
2018-09-18T00:53:00.221Z,24.3
2018-09-18T00:54:00.407Z,24.3
2018-09-18T00:55:11.839Z,24.3
2018-09-18T00:56:15.520Z,24.3
2018-09-18T00:57:11.976Z,24.3
2018-09-18T00:58:16.036Z,24.3
2018-09-18T00:59:19.174Z,24.3
2018-09-18T01:00:17.193Z,24.3
2018-09-18T01:01:16.349Z,24.3
2018-09-18T01:02:15.104Z,24.3
2018-09-18T01:03:11.376Z,24.2
2018-09-18T01:04:09.014Z,24.2
2018-09-18T01:05:07.575Z,24.2
2018-09-18T01:06:10.629Z,24.2
2018-09-18T01:07:11.157Z,24.2
2018-09-18T01:08:14.079Z,24.2
2018-09-18T01:09:09.090Z,24.2
2018-09-18T01:10:23.223Z,24.2
2018-09-18T01:11:23.232Z,24.2
2018-09-18T01:12:21.639Z,24.2
2018-09-18T01:13:21.132Z,24.2
2018-09-18T01:14:23.471Z,24.2
2018-09-18T01:15:21.856Z,24.2
2018-09-18T01:16:21.928Z,24.2
2018-09-18T01:17:23.811Z,24.2
2018-09-18T01:18:28.219Z,24.2
2018-09-18T01:19:29.957Z,24.2
2018-09-18T01:20:28.188Z,24.2
2018-09-18T01:21:26.210Z,24.2
2018-09-18T01:22:50.950Z,24.1
2018-09-18T01:23:56.835Z,24.2
2018-09-18T01:24:54.936Z,24.2
2018-09-18T01:25:56.330Z,24.2
2018-09-18T01:26:56.741Z,24.1
2018-09-18T01:27:59.070Z,24.2
2018-09-18T01:29:01.850Z,24.1
2018-09-18T01:30:08.244Z,24.1
2018-09-18T01:31:10.448Z,24.1
2018-09-18T01:32:09.492Z,24.1
2018-09-18T01:33:09.591Z,24.2
2018-09-18T01:34:21.873Z,24.2
2018-09-18T01:35:18.520Z,24.1
2018-09-18T01:36:22.431Z,24.1
2018-09-18T01:37:21.164Z,24.1
2018-09-18T01:38:20.037Z,24.1
2018-09-18T01:39:21.854Z,24.1
2018-09-18T01:40:20.423Z,24.1
2018-09-18T01:41:15.608Z,24.1
2018-09-18T01:42:21.627Z,24.1
2018-09-18T01:43:19.370Z,24.1
2018-09-18T01:44:32.699Z,24.1
2018-09-18T01:45:34.507Z,24.1
2018-09-18T01:46:33.073Z,24.1
2018-09-18T01:47:38.094Z,24.1
2018-09-18T01:48:38.040Z,24.1
2018-09-18T01:49:32.591Z,24.1
2018-09-18T01:50:32.922Z,24.1
2018-09-18T01:51:33.678Z,24.1
2018-09-18T01:52:36.036Z,24.1
2018-09-18T01:53:33.697Z,24.1
2018-09-18T01:54:33.242Z,24.1
2018-09-18T01:55:45.327Z,24.1
2018-09-18T01:56:45.121Z,24
2018-09-18T01:57:48.476Z,24.1
2018-09-18T01:58:49.312Z,24
2018-09-18T01:59:49.546Z,24.1
2018-09-18T02:00:56.569Z,24.1
2018-09-18T02:02:02.368Z,24
2018-09-18T02:03:01.131Z,24
2018-09-18T02:04:01.589Z,24
2018-09-18T02:04:59.436Z,24
2018-09-18T02:05:59.297Z,24
2018-09-18T02:06:56.936Z,24
2018-09-18T02:08:12.251Z,24
2018-09-18T02:09:14.347Z,24
2018-09-18T02:10:16.737Z,24
2018-09-18T02:11:15.460Z,24
2018-09-18T02:12:14.558Z,24
2018-09-18T02:13:13.942Z,24
2018-09-18T02:14:12.103Z,24
2018-09-18T02:15:11.873Z,24
2018-09-18T02:16:17.060Z,24
2018-09-18T02:17:15.475Z,24
2018-09-18T02:18:11.236Z,24
2018-09-18T02:19:16.775Z,24
2018-09-18T02:20:33.424Z,24
2018-09-18T02:21:27.620Z,24
2018-09-18T02:22:26.812Z,24
2018-09-18T02:23:32.163Z,24
2018-09-18T02:24:30.532Z,24
2018-09-18T02:25:31.518Z,24
2018-09-18T02:26:32.053Z,23.9
2018-09-18T02:27:29.373Z,23.9
2018-09-18T02:28:29.600Z,24
2018-09-18T02:29:34.506Z,24
2018-09-18T02:30:33.763Z,23.9
2018-09-18T02:31:34.849Z,24
2018-09-18T02:32:37.509Z,23.9
2018-09-18T02:33:38.689Z,24
2018-09-18T02:34:52.995Z,23.9
2018-09-18T02:35:50.119Z,23.9
2018-09-18T02:36:48.531Z,23.9
2018-09-18T02:37:46.878Z,23.9
2018-09-18T02:38:46.236Z,23.9
2018-09-18T02:39:45.039Z,23.9
2018-09-18T02:40:52.836Z,23.9
2018-09-18T02:41:50.697Z,23.9
2018-09-18T02:42:50.524Z,23.9
2018-09-18T02:43:49.172Z,23.9
2018-09-18T02:44:46.956Z,23.9
2018-09-18T02:45:45.100Z,23.9
2018-09-18T02:46:42.888Z,23.9
2018-09-18T02:48:00.400Z,23.9
2018-09-18T02:48:56.623Z,23.9
2018-09-18T02:49:56.286Z,23.9
2018-09-18T02:50:55.984Z,23.9
2018-09-18T02:51:55.435Z,23.9
2018-09-18T02:52:59.474Z,23.9
2018-09-18T02:54:00.699Z,23.9
2018-09-18T02:55:02.885Z,23.9
2018-09-18T02:56:08.282Z,23.9
2018-09-18T02:57:06.245Z,23.9
2018-09-18T02:58:13.332Z,23.9
2018-09-18T02:59:32.427Z,23.9
2018-09-18T03:00:31.985Z,23.9
2018-09-18T03:01:31.363Z,23.9
2018-09-18T03:02:33.527Z,23.9
2018-09-18T03:03:31.635Z,23.9
2018-09-18T03:04:37.835Z,23.9
2018-09-18T03:05:37.978Z,23.9
2018-09-18T03:06:40.800Z,23.9
2018-09-18T03:07:42.119Z,23.9
2018-09-18T03:08:43.252Z,23.9
2018-09-18T03:09:38.726Z,23.9
2018-09-18T03:10:43.064Z,23.9
2018-09-18T03:11:57.769Z,23.9
2018-09-18T03:12:55.223Z,23.9
2018-09-18T03:13:59.325Z,23.9
2018-09-18T03:15:00.999Z,23.8
2018-09-18T03:16:00.485Z,23.9
2018-09-18T03:17:00.023Z,23.9
2018-09-18T03:18:08.139Z,23.8
2018-09-18T03:19:08.824Z,23.9
2018-09-18T03:20:13.543Z,23.8
2018-09-18T03:21:14.551Z,23.9
2018-09-18T03:22:13.024Z,23.9
2018-09-18T03:23:10.003Z,23.8
2018-09-18T03:24:29.763Z,23.9
2018-09-18T03:25:23.905Z,23.8
2018-09-18T03:26:24.581Z,23.8
2018-09-18T03:27:23.316Z,23.9
2018-09-18T03:28:26.194Z,23.8
2018-09-18T03:29:27.221Z,23.8
2018-09-18T03:30:23.841Z,23.8
2018-09-18T03:31:25.272Z,23.8
2018-09-18T03:32:23.593Z,23.8
2018-09-18T03:33:22.121Z,23.8
2018-09-18T03:34:47.839Z,23.8
2018-09-18T03:35:43.311Z,23.8
2018-09-18T03:36:43.816Z,23.8
2018-09-18T03:37:45.275Z,23.8
2018-09-18T03:38:47.587Z,23.8
2018-09-18T03:39:50.936Z,23.8
2018-09-18T03:40:50.698Z,23.8
2018-09-18T03:41:52.180Z,23.8
2018-09-18T03:42:52.413Z,23.8
2018-09-18T03:43:50.779Z,23.8
2018-09-18T03:44:45.216Z,23.8
2018-09-18T03:45:58.984Z,23.8
2018-09-18T03:46:57.944Z,23.8
2018-09-18T03:47:56.877Z,23.8
2018-09-18T03:48:54.676Z,23.8
2018-09-18T03:49:52.234Z,23.8
2018-09-18T03:50:54.187Z,23.8
2018-09-18T03:52:00.411Z,23.8
2018-09-18T03:53:06.780Z,23.8
2018-09-18T03:54:05.516Z,23.8
2018-09-18T03:55:03.607Z,23.8
2018-09-18T03:55:59.836Z,23.8
2018-09-18T03:57:12.041Z,23.8
2018-09-18T03:58:15.048Z,23.7
2018-09-18T03:59:12.767Z,23.7
2018-09-18T04:00:13.161Z,23.8
2018-09-18T04:01:11.678Z,23.7
2018-09-18T04:02:09.838Z,23.8
2018-09-18T04:03:11.694Z,23.8
2018-09-18T04:04:09.440Z,23.8
2018-09-18T04:05:09.909Z,23.7
2018-09-18T04:06:07.681Z,23.7
2018-09-18T04:07:21.436Z,23.7
2018-09-18T04:08:16.092Z,23.7
2018-09-18T04:09:27.768Z,23.7
2018-09-18T04:10:26.977Z,23.7
2018-09-18T04:11:26.964Z,23.7
2018-09-18T04:12:24.533Z,23.7
2018-09-18T04:13:25.216Z,23.7
2018-09-18T04:14:28.464Z,23.7
2018-09-18T04:15:26.506Z,23.7
2018-09-18T04:16:24.578Z,23.7
2018-09-18T04:17:19.027Z,23.7
2018-09-18T04:18:30.888Z,23.7
2018-09-18T04:19:27.154Z,23.7
2018-09-18T04:20:29.690Z,23.7
2018-09-18T04:21:31.059Z,23.7
2018-09-18T04:22:34.380Z,23.7
2018-09-18T04:23:33.981Z,23.7
2018-09-18T04:24:38.820Z,23.7
2018-09-18T04:25:38.943Z,23.7
2018-09-18T04:26:44.706Z,23.7
2018-09-18T04:27:46.128Z,23.7
2018-09-18T04:28:48.576Z,23.7
2018-09-18T04:29:52.749Z,23.7
2018-09-18T04:31:05.327Z,23.7
2018-09-18T04:32:04.476Z,23.7
2018-09-18T04:33:03.737Z,23.7
2018-09-18T04:34:01.352Z,23.7
2018-09-18T04:35:00.756Z,23.7
2018-09-18T04:36:01.987Z,23.7
2018-09-18T04:36:59.462Z,23.7
2018-09-18T04:37:59.837Z,23.7
2018-09-18T04:39:02.639Z,23.7
2018-09-18T04:40:02.369Z,23.7
2018-09-18T04:41:01.727Z,23.7
2018-09-18T04:42:13.637Z,23.7
2018-09-18T04:43:10.746Z,23.7
2018-09-18T04:44:11.243Z,23.7
2018-09-18T04:45:12.252Z,23.7
2018-09-18T04:46:10.857Z,23.7
2018-09-18T04:47:08.151Z,23.7
2018-09-18T04:48:10.072Z,23.7
2018-09-18T04:49:09.884Z,23.7
2018-09-18T04:50:08.608Z,23.6
2018-09-18T04:51:10.466Z,23.7
2018-09-18T04:52:08.892Z,23.7
2018-09-18T04:53:20.886Z,23.6
2018-09-18T04:54:18.720Z,23.6
2018-09-18T04:55:16.765Z,23.6
2018-09-18T04:56:14.978Z,23.6
2018-09-18T04:57:25.284Z,23.6
2018-09-18T04:58:24.853Z,23.6
2018-09-18T04:59:22.560Z,23.6
2018-09-18T05:00:19.084Z,23.6
2018-09-18T05:01:25.158Z,23.6
2018-09-18T05:02:22.843Z,23.6
2018-09-18T05:03:18.650Z,23.6
2018-09-18T05:04:39.723Z,23.6
2018-09-18T05:05:38.275Z,23.6
2018-09-18T05:06:43.500Z,23.6
2018-09-18T05:07:39.381Z,23.6
2018-09-18T05:08:40.576Z,23.6
2018-09-18T05:09:39.436Z,23.6
2018-09-18T05:10:37.868Z,23.6
2018-09-18T05:11:36.168Z,23.6
2018-09-18T05:12:34.160Z,23.6
2018-09-18T05:13:32.014Z,23.6
2018-09-18T05:14:44.344Z,23.6
2018-09-18T05:15:39.785Z,23.6
2018-09-18T05:16:43.296Z,23.6
2018-09-18T05:17:40.924Z,23.6
2018-09-18T05:18:38.709Z,23.6
2018-09-18T05:19:38.739Z,23.5
2018-09-18T05:20:46.007Z,23.6
2018-09-18T05:21:44.308Z,23.6
2018-09-18T05:22:42.980Z,23.6
2018-09-18T05:23:39.877Z,23.6
2018-09-18T05:24:50.765Z,23.5
2018-09-18T05:25:53.324Z,23.5
2018-09-18T05:26:51.992Z,23.6
2018-09-18T05:27:50.825Z,23.5
2018-09-18T05:28:55.005Z,23.6
2018-09-18T05:29:56.351Z,23.6
2018-09-18T05:31:02.825Z,23.6
2018-09-18T05:32:00.348Z,23.5
2018-09-18T05:33:04.445Z,23.6
2018-09-18T05:34:02.540Z,23.5
2018-09-18T05:35:00.103Z,23.5
2018-09-18T05:35:57.312Z,23.5
2018-09-18T05:37:02.449Z,23.5
2018-09-18T05:37:56.920Z,23.5
2018-09-18T05:39:01.343Z,23.5
2018-09-18T05:39:56.042Z,23.5
2018-09-18T05:40:53.376Z,23.5
2018-09-18T05:42:09.235Z,23.5
2018-09-18T05:43:12.235Z,23.5
2018-09-18T05:44:20.145Z,23.5
2018-09-18T05:45:18.652Z,23.5
2018-09-18T05:46:17.172Z,23.5
2018-09-18T05:47:12.109Z,23.5
2018-09-18T05:48:22.610Z,23.5
2018-09-18T05:49:20.988Z,23.5
2018-09-18T05:50:18.858Z,23.5
2018-09-18T05:51:16.690Z,23.5
2018-09-18T05:52:23.079Z,23.5
2018-09-18T05:53:17.916Z,23.5
2018-09-18T05:54:30.592Z,23.5
2018-09-18T05:55:25.175Z,23.5
2018-09-18T05:56:25.250Z,23.5
2018-09-18T05:57:25.803Z,23.5
2018-09-18T05:58:27.342Z,23.5
2018-09-18T05:59:26.626Z,23.5
2018-09-18T06:00:26.041Z,23.5
2018-09-18T06:01:24.492Z,23.5
2018-09-18T06:02:23.167Z,23.5
2018-09-18T06:03:26.566Z,23.5
2018-09-18T06:04:27.684Z,23.5
2018-09-18T06:05:27.725Z,23.5
2018-09-18T06:06:23.799Z,23.5
2018-09-18T06:07:25.443Z,23.5
2018-09-18T06:08:37.947Z,23.5
2018-09-18T06:09:34.760Z,23.5
2018-09-18T06:10:37.223Z,23.5
2018-09-18T06:11:37.469Z,23.5
2018-09-18T06:12:37.210Z,23.5
2018-09-18T06:13:34.992Z,23.5
2018-09-18T06:14:33.516Z,23.5
2018-09-18T06:15:35.828Z,23.5
2018-09-18T06:16:34.251Z,23.5
2018-09-18T06:17:32.720Z,23.5
2018-09-18T06:18:30.664Z,23.5
2018-09-18T06:19:45.766Z,23.5
2018-09-18T06:20:43.487Z,23.6
2018-09-18T06:21:43.675Z,23.6
2018-09-18T06:22:44.145Z,23.6
2018-09-18T06:23:43.056Z,23.6
2018-09-18T06:24:46.268Z,23.6
2018-09-18T06:25:45.466Z,23.6
2018-09-18T06:26:43.282Z,23.7
2018-09-18T06:27:43.879Z,23.7
2018-09-18T06:28:50.220Z,23.7
2018-09-18T06:29:47.916Z,23.7
2018-09-18T06:30:59.913Z,23.7
2018-09-18T06:31:58.113Z,23.8
2018-09-18T06:32:56.847Z,23.8
2018-09-18T06:33:55.877Z,23.8
2018-09-18T06:34:57.322Z,23.8
2018-09-18T06:35:55.849Z,23.9
2018-09-18T06:36:55.647Z,23.9
2018-09-18T06:37:53.267Z,23.9
2018-09-18T06:38:49.974Z,23.9
2018-09-18T06:39:52.341Z,23.9
2018-09-18T06:41:10.131Z,23.9
2018-09-18T06:42:04.650Z,24
2018-09-18T06:43:02.880Z,24
2018-09-18T06:44:00.980Z,24
2018-09-18T06:44:59.466Z,24.1
2018-09-18T06:45:57.611Z,24.1
2018-09-18T06:46:57.210Z,24.1
2018-09-18T06:47:56.931Z,24.1
2018-09-18T06:48:54.978Z,24.1
2018-09-18T06:49:54.549Z,24.2
2018-09-18T06:50:50.182Z,24.2
2018-09-18T06:51:49.226Z,24.2
2018-09-18T06:53:07.300Z,24.3
2018-09-18T06:54:05.193Z,24.3
2018-09-18T06:55:03.879Z,24.3
2018-09-18T06:56:02.518Z,24.3
2018-09-18T06:57:00.692Z,24.4
2018-09-18T06:57:56.650Z,24.4
2018-09-18T06:58:57.943Z,24.4
2018-09-18T06:59:56.130Z,24.5
2018-09-18T07:00:56.975Z,24.5
2018-09-18T07:02:01.859Z,24.5
2018-09-18T07:03:16.178Z,24.5
2018-09-18T07:04:11.882Z,24.6
2018-09-18T07:05:10.595Z,24.6
2018-09-18T07:06:10.928Z,24.6
2018-09-18T07:07:10.607Z,24.6
2018-09-18T07:08:13.219Z,24.7
2018-09-18T07:09:17.341Z,24.7
2018-09-18T07:10:18.505Z,24.7
2018-09-18T07:11:19.223Z,24.7
2018-09-18T07:12:23.829Z,24.8
2018-09-18T07:13:31.143Z,24.8
2018-09-18T07:13:42.939Z,24.8
2018-09-18T07:14:41.697Z,24.8
2018-09-18T07:15:40.081Z,24.8
2018-09-18T07:16:43.092Z,24.8
2018-09-18T07:17:58.305Z,24.9
2018-09-18T07:19:04.922Z,24.9
2018-09-18T07:20:05.072Z,24.9
2018-09-18T07:21:03.675Z,24.9
2018-09-18T07:22:06.721Z,24.9
2018-09-18T07:23:05.664Z,25
2018-09-18T07:24:05.996Z,24.9
2018-09-18T07:25:05.157Z,25
2018-09-18T07:26:03.960Z,25
2018-09-18T07:27:01.372Z,25
2018-09-18T07:28:15.738Z,25
2018-09-18T07:29:11.102Z,25
2018-09-18T07:30:22.725Z,25
2018-09-18T07:31:21.412Z,25
2018-09-18T07:32:19.373Z,25
2018-09-18T07:33:19.580Z,25.1
2018-09-18T07:34:21.149Z,25
2018-09-18T07:35:18.927Z,25.1
2018-09-18T07:36:18.796Z,25.1
2018-09-18T07:37:16.945Z,25.1
2018-09-18T07:38:17.945Z,25.1
2018-09-18T07:39:12.961Z,25.1
2018-09-18T07:40:24.776Z,25.1
2018-09-18T07:41:19.245Z,25.2
2018-09-18T07:42:17.474Z,25.2
2018-09-18T07:43:15.187Z,25.2
2018-09-18T07:44:21.775Z,25.2
2018-09-18T07:45:23.939Z,25.2
2018-09-18T07:46:22.876Z,25.2
2018-09-18T07:47:23.057Z,25.2
2018-09-18T07:48:20.661Z,25.2
2018-09-18T07:49:20.798Z,25.3
2018-09-18T07:50:20.721Z,25.3
2018-09-18T07:51:22.410Z,25.3
2018-09-18T07:52:22.644Z,25.3
2018-09-18T07:53:31.338Z,25.3
2018-09-18T07:54:30.040Z,25.3
2018-09-18T07:55:45.726Z,25.3
2018-09-18T07:56:40.469Z,25.3
2018-09-18T07:57:40.089Z,25.3
2018-09-18T07:58:42.736Z,25.4
2018-09-18T07:59:40.506Z,25.4
2018-09-18T08:00:41.241Z,25.4
2018-09-18T08:01:41.212Z,25.4
2018-09-18T08:02:39.271Z,25.4
2018-09-18T08:03:42.110Z,25.4
2018-09-18T08:04:40.954Z,25.4
2018-09-18T08:05:38.736Z,25.4
2018-09-18T08:06:38.903Z,25.4
2018-09-18T08:07:34.058Z,25.5
2018-09-18T08:08:51.830Z,25.5
2018-09-18T08:09:47.170Z,25.5
2018-09-18T08:10:47.265Z,25.5
2018-09-18T08:11:45.854Z,25.5
2018-09-18T08:12:44.400Z,25.5
2018-09-18T08:13:42.457Z,25.5
2018-09-18T08:14:40.314Z,25.5
2018-09-18T08:15:39.002Z,25.6
2018-09-18T08:16:36.949Z,25.6
2018-09-18T08:17:34.859Z,25.6
2018-09-18T08:18:49.521Z,25.6
2018-09-18T08:19:45.413Z,25.6
2018-09-18T08:20:50.575Z,25.6
2018-09-18T08:21:48.792Z,25.6
2018-09-18T08:22:50.411Z,25.6
2018-09-18T08:23:57.353Z,25.6
2018-09-18T08:24:55.250Z,25.6
2018-09-18T08:25:59.695Z,25.7
2018-09-18T08:26:57.373Z,25.7
2018-09-18T08:27:57.739Z,25.7
2018-09-18T08:29:01.016Z,25.7
2018-09-18T08:29:59.873Z,25.7
2018-09-18T08:30:58.776Z,25.7
2018-09-18T08:31:55.212Z,25.7
2018-09-18T08:32:59.019Z,25.7
2018-09-18T08:34:00.022Z,25.7
2018-09-18T08:34:54.736Z,25.8
2018-09-18T08:36:06.674Z,25.8
2018-09-18T08:37:01.818Z,25.8
2018-09-18T08:38:01.433Z,25.8
2018-09-18T08:38:59.763Z,25.8
2018-09-18T08:40:00.260Z,25.8
2018-09-18T08:40:59.615Z,25.8
2018-09-18T08:42:05.991Z,25.8
2018-09-18T08:43:04.547Z,25.9
2018-09-18T08:44:06.445Z,25.8
2018-09-18T08:45:05.216Z,25.8
2018-09-18T08:46:05.989Z,25.9
2018-09-18T08:47:26.835Z,25.9
2018-09-18T08:48:20.939Z,25.9
2018-09-18T08:49:24.577Z,25.9
2018-09-18T08:50:26.692Z,25.9
2018-09-18T08:51:23.847Z,25.9
2018-09-18T08:52:21.458Z,25.9
2018-09-18T08:53:20.179Z,25.9
2018-09-18T08:54:18.085Z,25.9
2018-09-18T08:55:16.337Z,25.9
2018-09-18T08:56:14.229Z,25.9
2018-09-18T08:57:14.946Z,25.9
2018-09-18T08:58:13.061Z,25.9
2018-09-18T08:59:10.713Z,25.9
2018-09-18T09:00:05.189Z,25.9
2018-09-18T09:01:05.334Z,25.9
2018-09-18T09:02:18.522Z,25.9
2018-09-18T09:03:18.562Z,25.9
2018-09-18T09:04:16.556Z,25.9
2018-09-18T09:05:14.372Z,25.9
2018-09-18T09:06:12.786Z,25.9
2018-09-18T09:07:14.070Z,25.9
2018-09-18T09:08:13.314Z,25.8
2018-09-18T09:09:12.251Z,25.9
2018-09-18T09:10:13.471Z,25.9
2018-09-18T09:11:16.451Z,25.9
2018-09-18T09:12:29.503Z,25.9
2018-09-18T09:13:25.472Z,25.8
2018-09-18T09:14:28.114Z,25.8
2018-09-18T09:15:26.331Z,25.8
2018-09-18T09:16:25.313Z,25.9
2018-09-18T09:17:22.930Z,25.8
2018-09-18T09:18:21.306Z,25.8
2018-09-18T09:19:19.135Z,25.8
2018-09-18T09:20:27.848Z,25.8
2018-09-18T09:21:26.069Z,25.8
2018-09-18T09:22:24.072Z,25.8
2018-09-18T09:23:22.544Z,25.8
2018-09-18T09:24:23.922Z,25.8
2018-09-18T09:25:24.120Z,25.8
2018-09-18T09:26:38.132Z,25.8
2018-09-18T09:27:32.371Z,25.8
2018-09-18T09:28:30.756Z,25.8
2018-09-18T09:29:28.751Z,25.8
2018-09-18T09:30:24.778Z,25.8
2018-09-18T09:31:27.481Z,25.8
2018-09-18T09:32:27.442Z,25.8
2018-09-18T09:33:26.101Z,25.8
2018-09-18T09:34:23.657Z,25.8
2018-09-18T09:35:25.973Z,25.7
2018-09-18T09:36:21.800Z,25.8
2018-09-18T09:37:35.080Z,25.7
2018-09-18T09:38:32.801Z,25.7
2018-09-18T09:39:30.796Z,25.7
2018-09-18T09:40:28.602Z,25.7
2018-09-18T09:41:26.320Z,25.7
2018-09-18T09:42:24.728Z,25.7
2018-09-18T09:43:23.882Z,25.7
2018-09-18T09:44:19.686Z,25.7
2018-09-18T09:45:32.334Z,25.7
2018-09-18T09:46:30.873Z,25.7
2018-09-18T09:47:29.255Z,25.7
2018-09-18T09:48:44.794Z,25.7
2018-09-18T09:49:41.462Z,25.7
2018-09-18T09:50:39.167Z,25.7
2018-09-18T09:51:39.090Z,25.7
2018-09-18T09:52:53.577Z,25.7
2018-09-18T09:53:51.341Z,25.7
2018-09-18T09:54:50.191Z,25.7
2018-09-18T09:55:47.285Z,25.7
2018-09-18T09:56:47.947Z,25.6
2018-09-18T09:57:46.812Z,25.7
2018-09-18T09:58:48.641Z,25.7
2018-09-18T09:59:53.158Z,25.7
2018-09-18T10:00:48.111Z,25.6
2018-09-18T10:01:48.476Z,25.6
2018-09-18T10:02:51.749Z,25.6
2018-09-18T10:03:55.996Z,25.6
2018-09-18T10:05:09.670Z,25.6
2018-09-18T10:06:07.653Z,25.6
2018-09-18T10:07:06.920Z,25.6
2018-09-18T10:08:05.289Z,25.6
2018-09-18T10:09:07.124Z,25.5
2018-09-18T10:10:06.398Z,25.5
2018-09-18T10:11:11.484Z,25.5
2018-09-18T10:12:11.415Z,25.5
2018-09-18T10:13:10.969Z,25.5
2018-09-18T10:14:05.550Z,25.5
2018-09-18T10:15:05.657Z,25.4
2018-09-18T10:16:05.835Z,25.5
2018-09-18T10:17:00.286Z,25.5
2018-09-18T10:18:00.090Z,25.4
2018-09-18T10:18:58.840Z,25.4
2018-09-18T10:19:57.133Z,25.4
2018-09-18T10:21:09.764Z,25.4
2018-09-18T10:22:05.151Z,25.4
2018-09-18T10:23:03.659Z,25.4
2018-09-18T10:24:01.949Z,25.4
2018-09-18T10:25:01.369Z,25.4
2018-09-18T10:26:00.330Z,25.4
2018-09-18T10:26:58.506Z,25.4
2018-09-18T10:27:58.021Z,25.4
2018-09-18T10:28:53.855Z,25.4
2018-09-18T10:29:55.056Z,25.4
2018-09-18T10:30:57.441Z,25.4
2018-09-18T10:32:00.883Z,25.4
2018-09-18T10:33:15.382Z,25.4
2018-09-18T10:34:10.081Z,25.4
2018-09-18T10:35:08.423Z,25.5
2018-09-18T10:36:06.552Z,25.5
2018-09-18T10:37:07.470Z,25.5
2018-09-18T10:38:07.560Z,25.5
2018-09-18T10:39:06.179Z,25.5
2018-09-18T10:40:08.461Z,25.5
2018-09-18T10:41:06.859Z,25.5
2018-09-18T10:42:05.617Z,25.5
2018-09-18T10:43:00.963Z,25.6
2018-09-18T10:44:12.287Z,25.6
2018-09-18T10:45:17.107Z,25.6
2018-09-18T10:46:15.135Z,25.6
2018-09-18T10:47:13.350Z,25.6
2018-09-18T10:48:12.511Z,25.6
2018-09-18T10:49:19.323Z,25.6
2018-09-18T10:50:18.575Z,25.6
2018-09-18T10:51:18.871Z,25.6
2018-09-18T10:52:16.546Z,25.6
2018-09-18T10:53:14.802Z,25.6
2018-09-18T10:54:14.000Z,25.7
2018-09-18T10:55:35.816Z,25.7
2018-09-18T10:56:24.361Z,25.7
2018-09-18T10:57:27.731Z,25.7
2018-09-18T10:58:29.848Z,25.7
2018-09-18T10:59:28.042Z,25.7
2018-09-18T11:00:27.382Z,25.7
2018-09-18T11:01:25.657Z,25.7
2018-09-18T11:02:23.544Z,25.7
2018-09-18T11:03:21.458Z,25.8
2018-09-18T11:04:23.710Z,25.7
2018-09-18T11:05:24.175Z,25.7
2018-09-18T11:06:24.539Z,25.8
2018-09-18T11:07:24.756Z,25.8
2018-09-18T11:08:38.523Z,25.7
2018-09-18T11:09:34.121Z,25.8
2018-09-18T11:10:32.075Z,25.8
2018-09-18T11:11:30.541Z,25.8
2018-09-18T11:12:29.392Z,25.8
2018-09-18T11:13:33.987Z,25.8
2018-09-18T11:14:31.687Z,25.8
2018-09-18T11:15:29.954Z,25.8
2018-09-18T11:16:27.759Z,25.8
2018-09-18T11:17:27.716Z,25.8
2018-09-18T11:18:28.711Z,25.8
2018-09-18T11:19:27.041Z,25.8
2018-09-18T11:20:21.848Z,25.8
2018-09-18T11:21:34.696Z,25.8
2018-09-18T11:22:32.513Z,25.8
2018-09-18T11:23:30.851Z,25.8
2018-09-18T11:24:29.937Z,25.8
2018-09-18T11:25:34.642Z,25.8
2018-09-18T11:26:38.233Z,25.8
2018-09-18T11:27:36.269Z,25.8
2018-09-18T11:28:37.149Z,25.8
2018-09-18T11:29:47.976Z,25.8
2018-09-18T11:30:46.494Z,25.8
2018-09-18T11:31:49.528Z,25.8
2018-09-18T11:32:49.931Z,25.8
2018-09-18T11:33:47.684Z,25.8
2018-09-18T11:34:43.272Z,25.8
2018-09-18T11:35:58.436Z,25.8
2018-09-18T11:36:53.416Z,25.8
2018-09-18T11:37:51.753Z,25.8
2018-09-18T11:38:51.262Z,25.8
2018-09-18T11:39:49.724Z,25.8
2018-09-18T11:40:49.668Z,25.8
2018-09-18T11:41:49.104Z,25.8
2018-09-18T11:42:47.912Z,25.8
2018-09-18T11:43:49.600Z,25.8
2018-09-18T11:44:47.220Z,25.8
2018-09-18T11:45:42.368Z,25.8
2018-09-18T11:46:54.220Z,25.8
2018-09-18T11:47:58.886Z,25.8
2018-09-18T11:48:58.554Z,25.8
2018-09-18T11:49:57.475Z,25.8
2018-09-18T11:50:56.369Z,25.8
2018-09-18T11:51:55.691Z,25.8
2018-09-18T11:52:56.161Z,25.8
2018-09-18T11:53:54.284Z,25.8
2018-09-18T11:54:53.476Z,25.8
2018-09-18T11:55:48.009Z,25.8
2018-09-18T11:57:01.109Z,25.8
2018-09-18T11:57:55.929Z,25.9
2018-09-18T11:58:59.912Z,25.8
2018-09-18T12:00:00.352Z,25.8
2018-09-18T12:00:59.919Z,25.9
2018-09-18T12:01:57.611Z,25.8
2018-09-18T12:02:59.244Z,25.8
2018-09-18T12:04:01.488Z,25.8
2018-09-18T12:05:08.152Z,25.9
2018-09-18T12:06:06.229Z,25.9
2018-09-18T12:07:06.058Z,25.9
2018-09-18T12:08:04.685Z,25.9
2018-09-18T12:09:18.244Z,25.9
2018-09-18T12:10:13.614Z,25.9
2018-09-18T12:11:11.604Z,25.9
2018-09-18T12:12:16.210Z,25.9
2018-09-18T12:13:17.097Z,25.9
2018-09-18T12:14:09.191Z,25.8
2018-09-18T12:15:10.464Z,25.9
2018-09-18T12:16:11.504Z,25.9
2018-09-18T12:17:14.961Z,25.9
2018-09-18T12:18:15.013Z,25.9
2018-09-18T12:19:29.687Z,25.9
2018-09-18T12:20:43.596Z,25.9
2018-09-18T12:21:40.933Z,25.9
2018-09-18T12:22:45.832Z,25.9
2018-09-18T12:23:45.003Z,25.9
2018-09-18T12:24:51.158Z,25.9
2018-09-18T12:25:52.488Z,25.9
2018-09-18T12:26:55.174Z,25.9
2018-09-18T12:27:53.543Z,26
2018-09-18T12:28:52.808Z,26
2018-09-18T12:29:51.632Z,26
2018-09-18T12:30:46.211Z,26
2018-09-18T12:32:02.910Z,26
2018-09-18T12:32:59.905Z,26
2018-09-18T12:33:58.595Z,26
2018-09-18T12:35:01.723Z,26
2018-09-18T12:36:01.323Z,26
2018-09-18T12:36:58.990Z,26
2018-09-18T12:38:06.127Z,26.1
2018-09-18T12:39:04.763Z,26
2018-09-18T12:40:03.320Z,26
2018-09-18T12:41:04.627Z,26
2018-09-18T12:42:16.507Z,26.1
2018-09-18T12:43:10.765Z,26.1
2018-09-18T12:44:10.838Z,26.1
2018-09-18T12:45:08.507Z,26
2018-09-18T12:46:06.042Z,26.1
2018-09-18T12:47:04.434Z,26.1
2018-09-18T12:48:02.977Z,26.1
2018-09-18T12:49:00.811Z,26
2018-09-18T12:50:02.679Z,26
2018-09-18T12:50:59.990Z,26.1
2018-09-18T12:51:58.849Z,26.1
2018-09-18T12:52:56.865Z,26.1
2018-09-18T12:54:12.202Z,26.1
2018-09-18T12:55:09.272Z,26.1
2018-09-18T12:56:10.871Z,26.1
2018-09-18T12:57:11.345Z,26.1
2018-09-18T12:58:17.985Z,26.1
2018-09-18T12:59:20.676Z,26.1
2018-09-18T13:00:20.157Z,26.1
2018-09-18T13:01:18.604Z,26.1
2018-09-18T13:02:17.336Z,26.1
2018-09-18T13:03:15.770Z,26.2
2018-09-18T13:04:13.816Z,26.1
2018-09-18T13:05:09.109Z,26.2
2018-09-18T13:06:26.228Z,26.2
2018-09-18T13:07:25.487Z,26.2
2018-09-18T13:08:26.421Z,26.2
2018-09-18T13:09:31.565Z,26.2
2018-09-18T13:10:29.034Z,26.2
2018-09-18T13:11:31.067Z,26.2
2018-09-18T13:12:26.197Z,26.2
2018-09-18T13:13:29.176Z,26.2
2018-09-18T13:14:33.537Z,26.2
2018-09-18T13:15:32.417Z,26.3
2018-09-18T13:16:34.866Z,26.3
2018-09-18T13:17:33.159Z,26.2
2018-09-18T13:18:31.397Z,26.2
2018-09-18T13:19:26.305Z,26.2
2018-09-18T13:20:27.396Z,26.2
2018-09-18T13:21:28.884Z,26.2
2018-09-18T13:22:43.113Z,26.2
2018-09-18T13:23:48.081Z,26.2
2018-09-18T13:24:48.425Z,26.2
2018-09-18T13:25:49.836Z,26.2
2018-09-18T13:26:49.286Z,26.2
2018-09-18T13:27:49.289Z,26.2
2018-09-18T13:28:51.663Z,26.2
2018-09-18T13:29:47.398Z,26.2
2018-09-18T13:30:48.408Z,26.2
2018-09-18T13:31:46.699Z,26.2
2018-09-18T13:32:49.322Z,26.2
2018-09-18T13:33:45.058Z,26.2
2018-09-18T13:35:01.923Z,26.2
2018-09-18T13:35:57.519Z,26.2